THY1JR LTFM-EDDS
Flight info
| Callsign | THY1JR |
|---|---|
| Flight time | 2h 37m |
| Altitude | 32000 |
| Route | VADEN N618 BAKLO DCT XANEX DCT UTEKA/N0456F340 DCT BABIT DCT PIDON DCT GOTAR DCT TITIG L173 MAH/N0412F240 L173 DODIL T127 TEKSI TEKSI5A |
| Aircraft | B739/M-SDE2E3FGHIRWXY/LB1 |
Departure
| Time | 2026-05-05 07:27 |
|---|---|
| Airport | İstanbul Airport (LTFM) |
Arrival
| Time | 2026-05-05 10:04 |
|---|---|
| Airport | Stuttgart Airport (EDDS) |
| Time | Latitude | Longitude | Altitude | Speed | Heading |
|---|---|---|---|---|---|
| 2026-05-05 07:10 | 41.26124 | 28.73620 | 333 ft | 0 kts | 107° |
| 2026-05-05 07:17 | 41.26128 | 28.73603 | 328 ft | 4 kts | 98° |
| 2026-05-05 07:17 | 41.26128 | 28.73568 | 329 ft | 4 kts | 76° |
| 2026-05-05 07:17 | 41.26118 | 28.73535 | 329 ft | 4 kts | 57° |
| 2026-05-05 07:18 | 41.26101 | 28.73508 | 331 ft | 4 kts | 43° |
| 2026-05-05 07:18 | 41.26080 | 28.73486 | 329 ft | 4 kts | 27° |
| 2026-05-05 07:18 | 41.26066 | 28.73478 | 328 ft | 0 kts | 17° |
| 2026-05-05 07:21 | 41.26071 | 28.73480 | 330 ft | 4 kts | 17° |
| 2026-05-05 07:21 | 41.26100 | 28.73491 | 329 ft | 4 kts | 17° |
| 2026-05-05 07:21 | 41.26137 | 28.73505 | 332 ft | 9 kts | 18° |
| 2026-05-05 07:22 | 41.26204 | 28.73500 | 331 ft | 10 kts | 317° |
| 2026-05-05 07:22 | 41.26222 | 28.73452 | 329 ft | 4 kts | 275° |
| 2026-05-05 07:22 | 41.26222 | 28.73389 | 333 ft | 11 kts | 267° |
| 2026-05-05 07:22 | 41.26220 | 28.73289 | 331 ft | 11 kts | 270° |
| 2026-05-05 07:23 | 41.26220 | 28.73191 | 331 ft | 10 kts | 272° |
| 2026-05-05 07:23 | 41.26218 | 28.73096 | 332 ft | 10 kts | 267° |
| 2026-05-05 07:23 | 41.26216 | 28.73003 | 333 ft | 10 kts | 269° |
| 2026-05-05 07:23 | 41.26216 | 28.72960 | 333 ft | 0 kts | 269° |
| 2026-05-05 07:24 | 41.26215 | 28.72924 | 333 ft | 12 kts | 269° |
| 2026-05-05 07:24 | 41.26213 | 28.72795 | 333 ft | 14 kts | 268° |
| 2026-05-05 07:24 | 41.26212 | 28.72669 | 333 ft | 13 kts | 268° |
| 2026-05-05 07:25 | 41.26211 | 28.72551 | 330 ft | 10 kts | 282° |
| 2026-05-05 07:25 | 41.26256 | 28.72523 | 333 ft | 0 kts | 0° |
| 2026-05-05 07:26 | 41.26307 | 28.72522 | 330 ft | 33 kts | 359° |
| 2026-05-05 07:26 | 41.26806 | 28.72515 | 332 ft | 108 kts | 359° |
| 2026-05-05 07:26 | 41.27761 | 28.72497 | 333 ft | 165 kts | 359° |
| 2026-05-05 07:27 | 41.29040 | 28.72443 | 579 ft | 201 kts | 357° |
| 2026-05-05 07:27 | 41.30566 | 28.72372 | 964 ft | 234 kts | 359° |
| 2026-05-05 07:27 | 41.32195 | 28.72395 | 2079 ft | 228 kts | 1° |
| 2026-05-05 07:27 | 41.33768 | 28.72434 | 3067 ft | 227 kts | 1° |
| 2026-05-05 07:28 | 41.35365 | 28.72461 | 3759 ft | 232 kts | 0° |
| 2026-05-05 07:28 | 41.36986 | 28.72395 | 4470 ft | 235 kts | 348° |
| 2026-05-05 07:28 | 41.38467 | 28.71450 | 5104 ft | 245 kts | 322° |
| 2026-05-05 07:28 | 41.39607 | 28.69685 | 5662 ft | 257 kts | 307° |
| 2026-05-05 07:29 | 41.40563 | 28.67652 | 6365 ft | 261 kts | 304° |
| 2026-05-05 07:29 | 41.41486 | 28.65556 | 7050 ft | 264 kts | 304° |
| 2026-05-05 07:29 | 41.42415 | 28.63434 | 7724 ft | 267 kts | 304° |
| 2026-05-05 07:29 | 41.43358 | 28.61292 | 8401 ft | 269 kts | 304° |
| 2026-05-05 07:30 | 41.44317 | 28.59127 | 9065 ft | 273 kts | 305° |
| 2026-05-05 07:30 | 41.46281 | 28.54728 | 10316 ft | 281 kts | 305° |
| 2026-05-05 07:30 | 41.47322 | 28.52412 | 10485 ft | 302 kts | 305° |
| 2026-05-05 07:31 | 41.48438 | 28.49930 | 10651 ft | 322 kts | 304° |
| 2026-05-05 07:31 | 41.49621 | 28.47297 | 10802 ft | 340 kts | 304° |
| 2026-05-05 07:31 | 41.50868 | 28.44517 | 10942 ft | 358 kts | 304° |
| 2026-05-05 07:31 | 41.52167 | 28.41613 | 11265 ft | 369 kts | 304° |
| 2026-05-05 07:32 | 41.53485 | 28.38660 | 11787 ft | 372 kts | 304° |
| 2026-05-05 07:32 | 41.54815 | 28.35682 | 12361 ft | 375 kts | 304° |
| 2026-05-05 07:32 | 41.56159 | 28.32674 | 12922 ft | 379 kts | 304° |
| 2026-05-05 07:32 | 41.57497 | 28.29680 | 13445 ft | 382 kts | 304° |
| 2026-05-05 07:33 | 41.58807 | 28.26563 | 13959 ft | 387 kts | 301° |
| 2026-05-05 07:33 | 41.60029 | 28.23340 | 14459 ft | 390 kts | 300° |
| 2026-05-05 07:33 | 41.61229 | 28.20077 | 14980 ft | 392 kts | 300° |
| 2026-05-05 07:33 | 41.62435 | 28.16802 | 15488 ft | 394 kts | 300° |
| 2026-05-05 07:34 | 41.63661 | 28.13506 | 15979 ft | 396 kts | 300° |
| 2026-05-05 07:34 | 41.64900 | 28.10207 | 16459 ft | 399 kts | 300° |
| 2026-05-05 07:34 | 41.66151 | 28.06884 | 16938 ft | 401 kts | 300° |
| 2026-05-05 07:34 | 41.67409 | 28.03546 | 17414 ft | 403 kts | 301° |
| 2026-05-05 07:35 | 41.68779 | 28.00275 | 17869 ft | 404 kts | 305° |
| 2026-05-05 07:35 | 41.70293 | 27.97103 | 18317 ft | 405 kts | 307° |
| 2026-05-05 07:35 | 41.71863 | 27.93957 | 18712 ft | 408 kts | 307° |
| 2026-05-05 07:35 | 41.73447 | 27.90798 | 19131 ft | 409 kts | 307° |
| 2026-05-05 07:36 | 41.75027 | 27.87621 | 19545 ft | 411 kts | 306° |
| 2026-05-05 07:36 | 41.76603 | 27.84413 | 19938 ft | 413 kts | 306° |
| 2026-05-05 07:36 | 41.78179 | 27.81176 | 20317 ft | 416 kts | 305° |
| 2026-05-05 07:36 | 41.79755 | 27.77915 | 20716 ft | 418 kts | 305° |
| 2026-05-05 07:37 | 41.81332 | 27.74641 | 21115 ft | 420 kts | 305° |
| 2026-05-05 07:37 | 41.82918 | 27.71338 | 21502 ft | 422 kts | 304° |
| 2026-05-05 07:37 | 41.84510 | 27.68020 | 21859 ft | 424 kts | 304° |
| 2026-05-05 07:37 | 41.86112 | 27.64675 | 22208 ft | 427 kts | 304° |
| 2026-05-05 07:38 | 41.87718 | 27.61322 | 22591 ft | 428 kts | 304° |
| 2026-05-05 07:38 | 41.89332 | 27.57946 | 22965 ft | 431 kts | 304° |
| 2026-05-05 07:38 | 41.90951 | 27.54556 | 23309 ft | 433 kts | 304° |
| 2026-05-05 07:38 | 41.92583 | 27.51138 | 23657 ft | 436 kts | 304° |
| 2026-05-05 07:39 | 41.94218 | 27.47708 | 23955 ft | 437 kts | 304° |
| 2026-05-05 07:39 | 41.95861 | 27.44257 | 24258 ft | 439 kts | 304° |
| 2026-05-05 07:39 | 41.97486 | 27.40839 | 24551 ft | 441 kts | 304° |
| 2026-05-05 07:39 | 41.99137 | 27.37364 | 24845 ft | 442 kts | 304° |
| 2026-05-05 07:40 | 42.00795 | 27.33870 | 25114 ft | 444 kts | 304° |
| 2026-05-05 07:40 | 42.02458 | 27.30361 | 25393 ft | 446 kts | 304° |
| 2026-05-05 07:40 | 42.04129 | 27.26833 | 25652 ft | 448 kts | 304° |
| 2026-05-05 07:40 | 42.05805 | 27.23288 | 25921 ft | 450 kts | 304° |
| 2026-05-05 07:41 | 42.07584 | 27.19825 | 26174 ft | 450 kts | 310° |
| 2026-05-05 07:41 | 42.09631 | 27.16637 | 26459 ft | 451 kts | 314° |
| 2026-05-05 07:41 | 42.11754 | 27.13533 | 26723 ft | 452 kts | 314° |
| 2026-05-05 07:41 | 42.13902 | 27.10431 | 27061 ft | 452 kts | 314° |
| 2026-05-05 07:42 | 42.16032 | 27.07330 | 27486 ft | 449 kts | 314° |
| 2026-05-05 07:42 | 42.18136 | 27.04226 | 27920 ft | 447 kts | 314° |
| 2026-05-05 07:42 | 42.20216 | 27.01122 | 28308 ft | 446 kts | 313° |
| 2026-05-05 07:42 | 42.22286 | 26.98007 | 28670 ft | 446 kts | 313° |
| 2026-05-05 07:43 | 42.24347 | 26.94892 | 29060 ft | 444 kts | 313° |
| 2026-05-05 07:43 | 42.26397 | 26.91784 | 29471 ft | 443 kts | 313° |
| 2026-05-05 07:43 | 42.28437 | 26.88688 | 29883 ft | 441 kts | 313° |
| 2026-05-05 07:43 | 42.30476 | 26.85593 | 30236 ft | 440 kts | 313° |
| 2026-05-05 07:44 | 42.32505 | 26.82509 | 30536 ft | 439 kts | 313° |
| 2026-05-05 07:44 | 42.34536 | 26.79421 | 30790 ft | 439 kts | 313° |
| 2026-05-05 07:44 | 42.36568 | 26.76329 | 31034 ft | 439 kts | 313° |
| 2026-05-05 07:44 | 42.38593 | 26.73244 | 31309 ft | 439 kts | 313° |
| 2026-05-05 07:45 | 42.40618 | 26.70157 | 31572 ft | 438 kts | 313° |
| 2026-05-05 07:45 | 42.42636 | 26.67075 | 31831 ft | 438 kts | 313° |
| 2026-05-05 07:45 | 42.44655 | 26.63989 | 32080 ft | 437 kts | 313° |
| 2026-05-05 07:45 | 42.46671 | 26.60905 | 32312 ft | 437 kts | 313° |
| 2026-05-05 07:46 | 42.48683 | 26.57822 | 32565 ft | 436 kts | 313° |
| 2026-05-05 07:46 | 42.50691 | 26.54745 | 32812 ft | 436 kts | 313° |
| 2026-05-05 07:46 | 42.52674 | 26.51702 | 33028 ft | 436 kts | 313° |
| 2026-05-05 07:46 | 42.54569 | 26.48495 | 33230 ft | 437 kts | 306° |
| 2026-05-05 07:47 | 42.56114 | 26.44931 | 33476 ft | 439 kts | 301° |
| 2026-05-05 07:47 | 42.57546 | 26.41275 | 33693 ft | 438 kts | 300° |
| 2026-05-05 07:47 | 42.58961 | 26.37613 | 33891 ft | 439 kts | 300° |
| 2026-05-05 07:47 | 42.60378 | 26.33944 | 34047 ft | 439 kts | 300° |
| 2026-05-05 07:48 | 42.63231 | 26.26609 | 34049 ft | 438 kts | 300° |
| 2026-05-05 07:48 | 42.66088 | 26.19313 | 34054 ft | 437 kts | 301° |
| 2026-05-05 07:49 | 42.68939 | 26.12041 | 34053 ft | 435 kts | 301° |
| 2026-05-05 07:49 | 42.71777 | 26.04785 | 34060 ft | 435 kts | 301° |
| 2026-05-05 07:50 | 42.74611 | 25.97521 | 34057 ft | 434 kts | 301° |
| 2026-05-05 07:50 | 42.77436 | 25.90260 | 34054 ft | 434 kts | 301° |
| 2026-05-05 07:51 | 42.80259 | 25.82983 | 34060 ft | 435 kts | 301° |
| 2026-05-05 07:51 | 42.83077 | 25.75701 | 34058 ft | 435 kts | 301° |
| 2026-05-05 07:52 | 42.85879 | 25.68443 | 34061 ft | 435 kts | 300° |
| 2026-05-05 07:52 | 42.88692 | 25.61138 | 34057 ft | 435 kts | 300° |
| 2026-05-05 07:53 | 42.91499 | 25.53828 | 34067 ft | 435 kts | 300° |
| 2026-05-05 07:53 | 42.94303 | 25.46506 | 34063 ft | 435 kts | 300° |
| 2026-05-05 07:54 | 42.97104 | 25.39175 | 34058 ft | 435 kts | 300° |
| 2026-05-05 07:54 | 42.99898 | 25.31844 | 34052 ft | 435 kts | 300° |
| 2026-05-05 07:55 | 43.02686 | 25.24508 | 34059 ft | 435 kts | 300° |
| 2026-05-05 07:55 | 43.04999 | 25.18409 | 34051 ft | 435 kts | 300° |
| 2026-05-05 07:56 | 43.07775 | 25.11069 | 34055 ft | 434 kts | 300° |
| 2026-05-05 07:56 | 43.10548 | 25.03723 | 34060 ft | 434 kts | 300° |
| 2026-05-05 07:57 | 43.13285 | 24.96342 | 34052 ft | 435 kts | 298° |
| 2026-05-05 07:57 | 43.15738 | 24.88768 | 34065 ft | 435 kts | 296° |
| 2026-05-05 07:58 | 43.18103 | 24.81132 | 34058 ft | 435 kts | 296° |
| 2026-05-05 07:58 | 43.20481 | 24.73503 | 34063 ft | 435 kts | 296° |
| 2026-05-05 07:59 | 43.22873 | 24.65885 | 34056 ft | 435 kts | 296° |
| 2026-05-05 07:59 | 43.25266 | 24.58269 | 34064 ft | 435 kts | 296° |
| 2026-05-05 08:00 | 43.27639 | 24.50702 | 34066 ft | 434 kts | 296° |
| 2026-05-05 08:00 | 43.30038 | 24.43031 | 34060 ft | 435 kts | 296° |
| 2026-05-05 08:01 | 43.32400 | 24.35449 | 34061 ft | 435 kts | 296° |
| 2026-05-05 08:01 | 43.34772 | 24.27815 | 34071 ft | 434 kts | 296° |
| 2026-05-05 08:02 | 43.37136 | 24.20186 | 34071 ft | 434 kts | 296° |
| 2026-05-05 08:02 | 43.39496 | 24.12547 | 34069 ft | 434 kts | 296° |
| 2026-05-05 08:03 | 43.41849 | 24.04905 | 34059 ft | 434 kts | 296° |
| 2026-05-05 08:03 | 43.44197 | 23.97262 | 34063 ft | 434 kts | 296° |
| 2026-05-05 08:04 | 43.46539 | 23.89613 | 34066 ft | 434 kts | 296° |
| 2026-05-05 08:04 | 43.48878 | 23.81951 | 34063 ft | 434 kts | 296° |
| 2026-05-05 08:05 | 43.51209 | 23.74292 | 34066 ft | 434 kts | 296° |
| 2026-05-05 08:05 | 43.53536 | 23.66624 | 34060 ft | 434 kts | 296° |
| 2026-05-05 08:06 | 43.55859 | 23.58949 | 34065 ft | 434 kts | 296° |
| 2026-05-05 08:06 | 43.58175 | 23.51270 | 34061 ft | 433 kts | 296° |
| 2026-05-05 08:07 | 43.60485 | 23.43589 | 34065 ft | 433 kts | 296° |
| 2026-05-05 08:07 | 43.62788 | 23.35911 | 34065 ft | 433 kts | 296° |
| 2026-05-05 08:08 | 43.65069 | 23.28282 | 34064 ft | 433 kts | 296° |
| 2026-05-05 08:08 | 43.67358 | 23.20602 | 34066 ft | 432 kts | 296° |
| 2026-05-05 08:09 | 43.69643 | 23.12914 | 34067 ft | 432 kts | 296° |
| 2026-05-05 08:09 | 43.71919 | 23.05231 | 34065 ft | 432 kts | 295° |
| 2026-05-05 08:10 | 43.74191 | 22.97540 | 34063 ft | 432 kts | 295° |
| 2026-05-05 08:10 | 43.76458 | 22.89842 | 34061 ft | 432 kts | 295° |
| 2026-05-05 08:11 | 43.78719 | 22.82143 | 34066 ft | 432 kts | 295° |
| 2026-05-05 08:11 | 43.80976 | 22.74431 | 34063 ft | 432 kts | 295° |
| 2026-05-05 08:12 | 43.83229 | 22.66712 | 34064 ft | 432 kts | 295° |
| 2026-05-05 08:12 | 43.85476 | 22.58989 | 34070 ft | 432 kts | 295° |
| 2026-05-05 08:13 | 43.87720 | 22.51249 | 34069 ft | 433 kts | 295° |
| 2026-05-05 08:13 | 43.89959 | 22.43511 | 34068 ft | 433 kts | 295° |
| 2026-05-05 08:14 | 43.92881 | 22.36312 | 34064 ft | 427 kts | 311° |
| 2026-05-05 08:14 | 43.96743 | 22.30076 | 34067 ft | 426 kts | 313° |
| 2026-05-05 08:15 | 44.00638 | 22.23868 | 34065 ft | 426 kts | 313° |
| 2026-05-05 08:15 | 44.04514 | 22.17623 | 34064 ft | 427 kts | 312° |
| 2026-05-05 08:16 | 44.08376 | 22.11348 | 34065 ft | 427 kts | 312° |
| 2026-05-05 08:16 | 44.12230 | 22.05061 | 34067 ft | 427 kts | 312° |
| 2026-05-05 08:17 | 44.16057 | 21.98801 | 34070 ft | 427 kts | 312° |
| 2026-05-05 08:17 | 44.19907 | 21.92489 | 34060 ft | 428 kts | 312° |
| 2026-05-05 08:18 | 44.23758 | 21.86165 | 34069 ft | 428 kts | 311° |
| 2026-05-05 08:18 | 44.27606 | 21.79830 | 34060 ft | 428 kts | 311° |
| 2026-05-05 08:19 | 44.31450 | 21.73488 | 34060 ft | 428 kts | 311° |
| 2026-05-05 08:19 | 44.35295 | 21.67130 | 34062 ft | 428 kts | 311° |
| 2026-05-05 08:20 | 44.39138 | 21.60761 | 34061 ft | 429 kts | 311° |
| 2026-05-05 08:20 | 44.42980 | 21.54381 | 34059 ft | 429 kts | 311° |
| 2026-05-05 08:21 | 44.46822 | 21.47986 | 34057 ft | 429 kts | 311° |
| 2026-05-05 08:21 | 44.50661 | 21.41581 | 34057 ft | 430 kts | 311° |
| 2026-05-05 08:22 | 44.54501 | 21.35159 | 34060 ft | 430 kts | 311° |
| 2026-05-05 08:22 | 44.58341 | 21.28725 | 34051 ft | 430 kts | 311° |
| 2026-05-05 08:23 | 44.62180 | 21.22276 | 34050 ft | 431 kts | 311° |
| 2026-05-05 08:23 | 44.66017 | 21.15817 | 34059 ft | 431 kts | 311° |
| 2026-05-05 08:24 | 44.69858 | 21.09336 | 34057 ft | 432 kts | 311° |
| 2026-05-05 08:24 | 44.73698 | 21.02842 | 34053 ft | 433 kts | 310° |
| 2026-05-05 08:25 | 44.77548 | 20.96316 | 34045 ft | 433 kts | 310° |
| 2026-05-05 08:25 | 44.81372 | 20.89818 | 34047 ft | 434 kts | 310° |
| 2026-05-05 08:26 | 44.85221 | 20.83265 | 34046 ft | 435 kts | 310° |
| 2026-05-05 08:26 | 44.89073 | 20.76690 | 34042 ft | 435 kts | 310° |
| 2026-05-05 08:27 | 44.92934 | 20.70085 | 34043 ft | 436 kts | 310° |
| 2026-05-05 08:27 | 44.96790 | 20.63473 | 34038 ft | 437 kts | 310° |
| 2026-05-05 08:28 | 45.00650 | 20.56837 | 34037 ft | 437 kts | 310° |
| 2026-05-05 08:28 | 45.04509 | 20.50189 | 34041 ft | 438 kts | 309° |
| 2026-05-05 08:29 | 45.08371 | 20.43521 | 34043 ft | 438 kts | 309° |
| 2026-05-05 08:30 | 45.14161 | 20.33493 | 34041 ft | 439 kts | 309° |
| 2026-05-05 08:30 | 45.18018 | 20.26791 | 34046 ft | 439 kts | 309° |
| 2026-05-05 08:31 | 45.21876 | 20.20074 | 34035 ft | 439 kts | 309° |
| 2026-05-05 08:31 | 45.25729 | 20.13349 | 34029 ft | 439 kts | 309° |
| 2026-05-05 08:32 | 45.29580 | 20.06612 | 34029 ft | 439 kts | 309° |
| 2026-05-05 08:32 | 45.33426 | 19.99866 | 34028 ft | 439 kts | 309° |
| 2026-05-05 08:33 | 45.37269 | 19.93110 | 34026 ft | 439 kts | 308° |
| 2026-05-05 08:33 | 45.41108 | 19.86346 | 34022 ft | 439 kts | 308° |
| 2026-05-05 08:34 | 45.44943 | 19.79571 | 34031 ft | 439 kts | 308° |
| 2026-05-05 08:34 | 45.48775 | 19.72787 | 34024 ft | 439 kts | 308° |
| 2026-05-05 08:35 | 45.52576 | 19.66040 | 34030 ft | 440 kts | 308° |
| 2026-05-05 08:35 | 45.56405 | 19.59227 | 34027 ft | 440 kts | 308° |
| 2026-05-05 08:36 | 45.60227 | 19.52410 | 34027 ft | 440 kts | 308° |
| 2026-05-05 08:36 | 45.64051 | 19.45575 | 34022 ft | 440 kts | 308° |
| 2026-05-05 08:37 | 45.67867 | 19.38736 | 34026 ft | 440 kts | 308° |
| 2026-05-05 08:37 | 45.71681 | 19.31882 | 34022 ft | 440 kts | 308° |
| 2026-05-05 08:38 | 45.75490 | 19.25024 | 34024 ft | 440 kts | 307° |
| 2026-05-05 08:38 | 45.79296 | 19.18151 | 34018 ft | 440 kts | 307° |
| 2026-05-05 08:39 | 45.83098 | 19.11269 | 34025 ft | 440 kts | 307° |
| 2026-05-05 08:39 | 45.86900 | 19.04370 | 34021 ft | 441 kts | 307° |
| 2026-05-05 08:40 | 45.90699 | 18.97463 | 34023 ft | 441 kts | 307° |
| 2026-05-05 08:40 | 45.93897 | 18.90008 | 34027 ft | 439 kts | 291° |
| 2026-05-05 08:41 | 45.95810 | 18.81693 | 34022 ft | 439 kts | 287° |
| 2026-05-05 08:41 | 45.97622 | 18.73305 | 34022 ft | 440 kts | 287° |
| 2026-05-05 08:42 | 45.99465 | 18.64919 | 34022 ft | 440 kts | 287° |
| 2026-05-05 08:42 | 46.01325 | 18.56533 | 34023 ft | 440 kts | 287° |
| 2026-05-05 08:43 | 46.03184 | 18.48137 | 34027 ft | 441 kts | 287° |
| 2026-05-05 08:43 | 46.05027 | 18.39778 | 34024 ft | 441 kts | 287° |
| 2026-05-05 08:44 | 46.06875 | 18.31356 | 34021 ft | 441 kts | 287° |
| 2026-05-05 08:44 | 46.08718 | 18.22925 | 34028 ft | 441 kts | 287° |
| 2026-05-05 08:45 | 46.10557 | 18.14485 | 34025 ft | 442 kts | 287° |
| 2026-05-05 08:45 | 46.12233 | 18.07483 | 34008 ft | 442 kts | 294° |
| 2026-05-05 08:46 | 46.15440 | 18.00000 | 34028 ft | 443 kts | 304° |
| 2026-05-05 08:46 | 46.19040 | 17.92788 | 34014 ft | 443 kts | 304° |
| 2026-05-05 08:47 | 46.22625 | 17.85554 | 34009 ft | 443 kts | 304° |
| 2026-05-05 08:47 | 46.26176 | 17.78292 | 34008 ft | 443 kts | 304° |
| 2026-05-05 08:48 | 46.29715 | 17.71003 | 33990 ft | 442 kts | 303° |
| 2026-05-05 08:48 | 46.33241 | 17.63714 | 33989 ft | 442 kts | 303° |
| 2026-05-05 08:49 | 46.36754 | 17.56435 | 33985 ft | 441 kts | 303° |
| 2026-05-05 08:49 | 46.40262 | 17.49149 | 33985 ft | 441 kts | 303° |
| 2026-05-05 08:50 | 46.43763 | 17.41859 | 33983 ft | 440 kts | 303° |
| 2026-05-05 08:50 | 46.47252 | 17.34574 | 33973 ft | 440 kts | 303° |
| 2026-05-05 08:51 | 46.50732 | 17.27291 | 33969 ft | 439 kts | 303° |
| 2026-05-05 08:51 | 46.54206 | 17.20001 | 33971 ft | 439 kts | 303° |
| 2026-05-05 08:52 | 46.57670 | 17.12711 | 33968 ft | 438 kts | 303° |
| 2026-05-05 08:52 | 46.61103 | 17.05470 | 33972 ft | 438 kts | 303° |
| 2026-05-05 08:53 | 46.64554 | 16.98172 | 33971 ft | 438 kts | 303° |
| 2026-05-05 08:53 | 46.67999 | 16.90868 | 33965 ft | 438 kts | 303° |
| 2026-05-05 08:54 | 46.71434 | 16.83563 | 33965 ft | 437 kts | 303° |
| 2026-05-05 08:54 | 46.74866 | 16.76248 | 33961 ft | 437 kts | 302° |
| 2026-05-05 08:55 | 46.78294 | 16.68920 | 33953 ft | 437 kts | 302° |
| 2026-05-05 08:55 | 46.81717 | 16.61584 | 33949 ft | 437 kts | 302° |
| 2026-05-05 08:56 | 46.85140 | 16.54230 | 33941 ft | 438 kts | 302° |
| 2026-05-05 08:56 | 46.88558 | 16.46864 | 33937 ft | 438 kts | 302° |
| 2026-05-05 08:57 | 46.91976 | 16.39479 | 33942 ft | 439 kts | 302° |
| 2026-05-05 08:57 | 46.95398 | 16.32068 | 33938 ft | 440 kts | 302° |
| 2026-05-05 08:58 | 46.98820 | 16.24638 | 33932 ft | 440 kts | 302° |
| 2026-05-05 08:58 | 47.01700 | 16.16767 | 33937 ft | 438 kts | 293° |
| 2026-05-05 08:59 | 47.04188 | 16.08597 | 33924 ft | 439 kts | 292° |
| 2026-05-05 08:59 | 47.06674 | 16.00399 | 33927 ft | 440 kts | 292° |
| 2026-05-05 09:00 | 47.09181 | 15.92207 | 33926 ft | 440 kts | 292° |
| 2026-05-05 09:00 | 47.11696 | 15.84011 | 33923 ft | 441 kts | 292° |
| 2026-05-05 09:01 | 47.14197 | 15.75849 | 33909 ft | 441 kts | 292° |
| 2026-05-05 09:01 | 47.16706 | 15.67634 | 33915 ft | 441 kts | 292° |
| 2026-05-05 09:02 | 47.19209 | 15.59410 | 33919 ft | 441 kts | 292° |
| 2026-05-05 09:02 | 47.21703 | 15.51183 | 33911 ft | 440 kts | 292° |
| 2026-05-05 09:03 | 47.24191 | 15.42951 | 33908 ft | 440 kts | 292° |
| 2026-05-05 09:03 | 47.26667 | 15.34733 | 33908 ft | 439 kts | 292° |
| 2026-05-05 09:04 | 47.29134 | 15.26518 | 33912 ft | 438 kts | 292° |
| 2026-05-05 09:04 | 47.31591 | 15.18307 | 33904 ft | 438 kts | 291° |
| 2026-05-05 09:05 | 47.34041 | 15.10092 | 33914 ft | 437 kts | 291° |
| 2026-05-05 09:05 | 47.36480 | 15.01887 | 33911 ft | 437 kts | 291° |
| 2026-05-05 09:06 | 47.38915 | 14.93668 | 33908 ft | 436 kts | 291° |
| 2026-05-05 09:06 | 47.41337 | 14.85469 | 33908 ft | 436 kts | 291° |
| 2026-05-05 09:07 | 47.43752 | 14.77261 | 33898 ft | 435 kts | 291° |
| 2026-05-05 09:07 | 47.46159 | 14.69056 | 33904 ft | 435 kts | 291° |
| 2026-05-05 09:08 | 47.48561 | 14.60838 | 33889 ft | 436 kts | 291° |
| 2026-05-05 09:08 | 47.50960 | 14.52605 | 33885 ft | 436 kts | 291° |
| 2026-05-05 09:09 | 47.53357 | 14.44351 | 33882 ft | 437 kts | 291° |
| 2026-05-05 09:09 | 47.55733 | 14.36140 | 33861 ft | 437 kts | 291° |
| 2026-05-05 09:10 | 47.58119 | 14.27870 | 33857 ft | 437 kts | 291° |
| 2026-05-05 09:10 | 47.60502 | 14.19578 | 33869 ft | 437 kts | 291° |
| 2026-05-05 09:11 | 47.62880 | 14.11276 | 33859 ft | 438 kts | 290° |
| 2026-05-05 09:11 | 47.65255 | 14.02957 | 33861 ft | 438 kts | 290° |
| 2026-05-05 09:12 | 47.67627 | 13.94622 | 33856 ft | 439 kts | 290° |
| 2026-05-05 09:12 | 47.69997 | 13.86260 | 33851 ft | 440 kts | 290° |
| 2026-05-05 09:13 | 47.72362 | 13.77891 | 33839 ft | 440 kts | 290° |
| 2026-05-05 09:13 | 47.74718 | 13.69523 | 33851 ft | 439 kts | 290° |
| 2026-05-05 09:14 | 47.77069 | 13.61145 | 33842 ft | 439 kts | 290° |
| 2026-05-05 09:14 | 47.79414 | 13.52758 | 33853 ft | 439 kts | 290° |
| 2026-05-05 09:15 | 47.81751 | 13.44368 | 33859 ft | 439 kts | 290° |
| 2026-05-05 09:15 | 47.84085 | 13.35959 | 33858 ft | 440 kts | 290° |
| 2026-05-05 09:16 | 47.86415 | 13.27537 | 33861 ft | 440 kts | 290° |
| 2026-05-05 09:16 | 47.88739 | 13.19107 | 33852 ft | 440 kts | 290° |
| 2026-05-05 09:17 | 47.91054 | 13.10678 | 33863 ft | 440 kts | 290° |
| 2026-05-05 09:17 | 47.93368 | 13.02226 | 33855 ft | 440 kts | 289° |
| 2026-05-05 09:18 | 47.95671 | 12.93780 | 33855 ft | 439 kts | 289° |
| 2026-05-05 09:18 | 47.97951 | 12.85390 | 33850 ft | 439 kts | 289° |
| 2026-05-05 09:19 | 48.00239 | 12.76940 | 33849 ft | 439 kts | 289° |
| 2026-05-05 09:19 | 48.02521 | 12.68484 | 33850 ft | 439 kts | 289° |
| 2026-05-05 09:20 | 48.04795 | 12.60027 | 33849 ft | 439 kts | 289° |
| 2026-05-05 09:20 | 48.06992 | 12.51535 | 33845 ft | 438 kts | 287° |
| 2026-05-05 09:21 | 48.08958 | 12.42915 | 33854 ft | 438 kts | 286° |
| 2026-05-05 09:21 | 48.10958 | 12.34309 | 33853 ft | 438 kts | 287° |
| 2026-05-05 09:22 | 48.12974 | 12.25709 | 33855 ft | 438 kts | 287° |
| 2026-05-05 09:22 | 48.14983 | 12.17094 | 33845 ft | 438 kts | 286° |
| 2026-05-05 09:23 | 48.16392 | 12.08291 | 33851 ft | 433 kts | 273° |
| 2026-05-05 09:23 | 48.16906 | 11.99306 | 33861 ft | 433 kts | 272° |
| 2026-05-05 09:24 | 48.17448 | 11.90317 | 33860 ft | 433 kts | 273° |
| 2026-05-05 09:24 | 48.18060 | 11.81356 | 33850 ft | 434 kts | 276° |
| 2026-05-05 09:25 | 48.19460 | 11.72538 | 33861 ft | 435 kts | 281° |
| 2026-05-05 09:25 | 48.20953 | 11.63826 | 33852 ft | 434 kts | 281° |
| 2026-05-05 09:26 | 48.22413 | 11.55053 | 33865 ft | 433 kts | 280° |
| 2026-05-05 09:26 | 48.23861 | 11.46207 | 33874 ft | 434 kts | 280° |
| 2026-05-05 09:27 | 48.25296 | 11.37482 | 33875 ft | 435 kts | 283° |
| 2026-05-05 09:27 | 48.27908 | 11.29183 | 33503 ft | 451 kts | 300° |
| 2026-05-05 09:27 | 48.29861 | 11.25434 | 32871 ft | 457 kts | 309° |
| 2026-05-05 09:28 | 48.32072 | 11.21996 | 32037 ft | 459 kts | 311° |
| 2026-05-05 09:28 | 48.34323 | 11.18612 | 31317 ft | 457 kts | 311° |
| 2026-05-05 09:28 | 48.36570 | 11.15232 | 30598 ft | 456 kts | 311° |
| 2026-05-05 09:28 | 48.38783 | 11.11868 | 30141 ft | 449 kts | 311° |
| 2026-05-05 09:29 | 48.40956 | 11.08521 | 29564 ft | 444 kts | 310° |
| 2026-05-05 09:29 | 48.43053 | 11.05264 | 29642 ft | 427 kts | 310° |
| 2026-05-05 09:29 | 48.45129 | 11.02021 | 29459 ft | 435 kts | 310° |
| 2026-05-05 09:29 | 48.47259 | 10.98688 | 29277 ft | 445 kts | 310° |
| 2026-05-05 09:30 | 48.49415 | 10.95319 | 29289 ft | 450 kts | 310° |
| 2026-05-05 09:30 | 48.53720 | 10.88465 | 29251 ft | 447 kts | 310° |
| 2026-05-05 09:31 | 48.57987 | 10.81608 | 29259 ft | 450 kts | 310° |
| 2026-05-05 09:31 | 48.60136 | 10.78164 | 29149 ft | 452 kts | 310° |
| 2026-05-05 09:31 | 48.62296 | 10.74726 | 28861 ft | 449 kts | 310° |
| 2026-05-05 09:32 | 48.66567 | 10.67930 | 28871 ft | 448 kts | 310° |
| 2026-05-05 09:32 | 48.70847 | 10.61049 | 28841 ft | 445 kts | 302° |
| 2026-05-05 09:32 | 48.72236 | 10.56949 | 28848 ft | 436 kts | 285° |
| 2026-05-05 09:33 | 48.72729 | 10.54005 | 28655 ft | 436 kts | 275° |
| 2026-05-05 09:33 | 48.72784 | 10.49474 | 28375 ft | 425 kts | 261° |
| 2026-05-05 09:33 | 48.72430 | 10.45095 | 27887 ft | 418 kts | 260° |
| 2026-05-05 09:33 | 48.72027 | 10.40741 | 27218 ft | 416 kts | 259° |
| 2026-05-05 09:34 | 48.71624 | 10.36406 | 26484 ft | 416 kts | 259° |
| 2026-05-05 09:34 | 48.71234 | 10.32064 | 25834 ft | 415 kts | 260° |
| 2026-05-05 09:34 | 48.70862 | 10.27750 | 25252 ft | 412 kts | 260° |
| 2026-05-05 09:34 | 48.70501 | 10.23465 | 24709 ft | 409 kts | 261° |
| 2026-05-05 09:35 | 48.70146 | 10.19209 | 24167 ft | 406 kts | 261° |
| 2026-05-05 09:35 | 48.69438 | 10.10778 | 23066 ft | 401 kts | 260° |
| 2026-05-05 09:35 | 48.69092 | 10.06659 | 22918 ft | 387 kts | 261° |
| 2026-05-05 09:36 | 48.68795 | 10.01406 | 22786 ft | 369 kts | 264° |
| 2026-05-05 09:36 | 48.68700 | 9.98816 | 22733 ft | 361 kts | 264° |
| 2026-05-05 09:36 | 48.68581 | 9.95096 | 22640 ft | 348 kts | 264° |
| 2026-05-05 09:36 | 48.68468 | 9.91505 | 22552 ft | 336 kts | 264° |
| 2026-05-05 09:37 | 48.68354 | 9.88026 | 22347 ft | 328 kts | 264° |
| 2026-05-05 09:37 | 48.68235 | 9.84595 | 21954 ft | 326 kts | 264° |
| 2026-05-05 09:37 | 48.68111 | 9.81181 | 21499 ft | 326 kts | 264° |
| 2026-05-05 09:37 | 48.67982 | 9.77726 | 20911 ft | 330 kts | 263° |
| 2026-05-05 09:38 | 48.67855 | 9.74328 | 20633 ft | 325 kts | 263° |
| 2026-05-05 09:38 | 48.67725 | 9.70901 | 20379 ft | 319 kts | 263° |
| 2026-05-05 09:38 | 48.67597 | 9.67571 | 20023 ft | 317 kts | 263° |
| 2026-05-05 09:38 | 48.67468 | 9.64239 | 19631 ft | 316 kts | 263° |
| 2026-05-05 09:39 | 48.67339 | 9.60973 | 19257 ft | 315 kts | 263° |
| 2026-05-05 09:39 | 48.67208 | 9.57663 | 18897 ft | 314 kts | 263° |
| 2026-05-05 09:39 | 48.67258 | 9.54357 | 18530 ft | 317 kts | 274° |
| 2026-05-05 09:39 | 48.67275 | 9.51036 | 18145 ft | 309 kts | 253° |
| 2026-05-05 09:40 | 48.66592 | 9.48004 | 17759 ft | 303 kts | 244° |
| 2026-05-05 09:40 | 48.65740 | 9.45104 | 17391 ft | 301 kts | 242° |
| 2026-05-05 09:40 | 48.64886 | 9.42276 | 17003 ft | 300 kts | 243° |
| 2026-05-05 09:40 | 48.64040 | 9.39365 | 16642 ft | 298 kts | 243° |
| 2026-05-05 09:41 | 48.63218 | 9.36494 | 16301 ft | 296 kts | 244° |
| 2026-05-05 09:41 | 48.62453 | 9.33605 | 15929 ft | 296 kts | 246° |
| 2026-05-05 09:41 | 48.61726 | 9.30711 | 15596 ft | 294 kts | 246° |
| 2026-05-05 09:41 | 48.61006 | 9.27825 | 15248 ft | 293 kts | 246° |
| 2026-05-05 09:42 | 48.60292 | 9.24954 | 14890 ft | 292 kts | 246° |
| 2026-05-05 09:42 | 48.59581 | 9.22097 | 14577 ft | 290 kts | 246° |
| 2026-05-05 09:42 | 48.58880 | 9.19289 | 14243 ft | 289 kts | 247° |
| 2026-05-05 09:42 | 48.58233 | 9.16378 | 13902 ft | 288 kts | 250° |
| 2026-05-05 09:43 | 48.57640 | 9.13472 | 13431 ft | 292 kts | 250° |
| 2026-05-05 09:43 | 48.57052 | 9.10534 | 12787 ft | 300 kts | 251° |
| 2026-05-05 09:43 | 48.56472 | 9.07467 | 12123 ft | 309 kts | 253° |
| 2026-05-05 09:43 | 48.55968 | 9.04274 | 11348 ft | 315 kts | 255° |
| 2026-05-05 09:44 | 48.55476 | 9.01002 | 10421 ft | 324 kts | 255° |
| 2026-05-05 09:44 | 48.55006 | 8.97768 | 10375 ft | 310 kts | 258° |
| 2026-05-05 09:44 | 48.54600 | 8.94542 | 10114 ft | 317 kts | 255° |
| 2026-05-05 09:44 | 48.54137 | 8.91173 | 10037 ft | 331 kts | 260° |
| 2026-05-05 09:45 | 48.54214 | 8.87855 | 10305 ft | 304 kts | 286° |
| 2026-05-05 09:45 | 48.55240 | 8.85266 | 10293 ft | 281 kts | 317° |
| 2026-05-05 09:45 | 48.56898 | 8.83989 | 10139 ft | 261 kts | 353° |
| 2026-05-05 09:45 | 48.58617 | 8.84248 | 10000 ft | 240 kts | 20° |
| 2026-05-05 09:46 | 48.60032 | 8.85359 | 9866 ft | 220 kts | 35° |
| 2026-05-05 09:46 | 48.61405 | 8.86135 | 9646 ft | 207 kts | 0° |
| 2026-05-05 09:46 | 48.62809 | 8.85710 | 9047 ft | 213 kts | 338° |
| 2026-05-05 09:46 | 48.64294 | 8.84838 | 8804 ft | 243 kts | 339° |
| 2026-05-05 09:47 | 48.65887 | 8.83901 | 8801 ft | 244 kts | 339° |
| 2026-05-05 09:47 | 48.67431 | 8.82991 | 8724 ft | 231 kts | 339° |
| 2026-05-05 09:47 | 48.68865 | 8.82103 | 8529 ft | 216 kts | 330° |
| 2026-05-05 09:47 | 48.69896 | 8.80537 | 8086 ft | 210 kts | 293° |
| 2026-05-05 09:48 | 48.70124 | 8.78417 | 7621 ft | 205 kts | 257° |
| 2026-05-05 09:48 | 48.69482 | 8.76557 | 7172 ft | 201 kts | 220° |
| 2026-05-05 09:48 | 48.68250 | 8.75690 | 6695 ft | 197 kts | 183° |
| 2026-05-05 09:48 | 48.66947 | 8.76150 | 6375 ft | 194 kts | 148° |
| 2026-05-05 09:49 | 48.66001 | 8.77615 | 6346 ft | 200 kts | 126° |
| 2026-05-05 09:49 | 48.65210 | 8.79336 | 6289 ft | 199 kts | 124° |
| 2026-05-05 09:49 | 48.64627 | 8.81242 | 6264 ft | 201 kts | 107° |
| 2026-05-05 09:49 | 48.64259 | 8.83270 | 6257 ft | 200 kts | 106° |
| 2026-05-05 09:50 | 48.63895 | 8.85281 | 6253 ft | 197 kts | 106° |
| 2026-05-05 09:50 | 48.63543 | 8.87285 | 6258 ft | 198 kts | 101° |
| 2026-05-05 09:50 | 48.63427 | 8.89370 | 6265 ft | 200 kts | 91° |
| 2026-05-05 09:50 | 48.63496 | 8.91481 | 6254 ft | 202 kts | 83° |
| 2026-05-05 09:51 | 48.63720 | 8.93582 | 6262 ft | 203 kts | 81° |
| 2026-05-05 09:51 | 48.64027 | 8.95669 | 6258 ft | 204 kts | 77° |
| 2026-05-05 09:51 | 48.64395 | 8.97736 | 6261 ft | 203 kts | 76° |
| 2026-05-05 09:51 | 48.64775 | 8.99782 | 6270 ft | 201 kts | 75° |
| 2026-05-05 09:52 | 48.65155 | 9.01805 | 6157 ft | 199 kts | 76° |
| 2026-05-05 09:52 | 48.65543 | 9.03824 | 5687 ft | 205 kts | 75° |
| 2026-05-05 09:52 | 48.65935 | 9.05935 | 5141 ft | 213 kts | 76° |
| 2026-05-05 09:52 | 48.66294 | 9.08164 | 4540 ft | 221 kts | 76° |
| 2026-05-05 09:53 | 48.66730 | 9.10408 | 3761 ft | 226 kts | 73° |
| 2026-05-05 09:53 | 48.67168 | 9.12719 | 3031 ft | 221 kts | 73° |
| 2026-05-05 09:53 | 48.67574 | 9.14864 | 2473 ft | 205 kts | 72° |
| 2026-05-05 09:53 | 48.67970 | 9.16803 | 2150 ft | 185 kts | 74° |
| 2026-05-05 09:54 | 48.68270 | 9.18554 | 2159 ft | 164 kts | 73° |
| 2026-05-05 09:54 | 48.68610 | 9.20204 | 2199 ft | 171 kts | 70° |
| 2026-05-05 09:54 | 48.69042 | 9.22122 | 2445 ft | 211 kts | 71° |
| 2026-05-05 09:54 | 48.69537 | 9.24351 | 2951 ft | 232 kts | 71° |
| 2026-05-05 09:55 | 48.69904 | 9.26812 | 3036 ft | 249 kts | 80° |
| 2026-05-05 09:55 | 48.70158 | 9.29396 | 2959 ft | 244 kts | 82° |
| 2026-05-05 09:55 | 48.70335 | 9.31863 | 2969 ft | 230 kts | 85° |
| 2026-05-05 09:55 | 48.70424 | 9.34238 | 2975 ft | 224 kts | 88° |
| 2026-05-05 09:56 | 48.70113 | 9.36533 | 2970 ft | 232 kts | 118° |
| 2026-05-05 09:56 | 48.68985 | 9.38324 | 2961 ft | 237 kts | 150° |
| 2026-05-05 09:56 | 48.67431 | 9.38934 | 2958 ft | 237 kts | 182° |
| 2026-05-05 09:56 | 48.65880 | 9.38212 | 2950 ft | 236 kts | 213° |
| 2026-05-05 09:57 | 48.64611 | 9.36651 | 2959 ft | 236 kts | 222° |
| 2026-05-05 09:57 | 48.63452 | 9.34898 | 2950 ft | 236 kts | 233° |
| 2026-05-05 09:57 | 48.62506 | 9.32879 | 2961 ft | 236 kts | 236° |
| 2026-05-05 09:57 | 48.61568 | 9.30849 | 2949 ft | 235 kts | 236° |
| 2026-05-05 09:58 | 48.60631 | 9.28820 | 2953 ft | 235 kts | 236° |
| 2026-05-05 09:58 | 48.59769 | 9.26775 | 2936 ft | 225 kts | 247° |
| 2026-05-05 09:58 | 48.59285 | 9.24609 | 2951 ft | 214 kts | 255° |
| 2026-05-05 09:58 | 48.58889 | 9.22459 | 2937 ft | 211 kts | 255° |
| 2026-05-05 09:59 | 48.58504 | 9.20330 | 2948 ft | 210 kts | 255° |
| 2026-05-05 09:59 | 48.58120 | 9.18192 | 2947 ft | 212 kts | 256° |
| 2026-05-05 09:59 | 48.57837 | 9.16006 | 2946 ft | 210 kts | 264° |
| 2026-05-05 09:59 | 48.57908 | 9.13882 | 2936 ft | 197 kts | 285° |
| 2026-05-05 10:00 | 48.58244 | 9.11869 | 2940 ft | 198 kts | 285° |
| 2026-05-05 10:00 | 48.58697 | 9.09944 | 2929 ft | 193 kts | 306° |
| 2026-05-05 10:00 | 48.59604 | 9.08480 | 2939 ft | 192 kts | 326° |
| 2026-05-05 10:00 | 48.60751 | 9.07481 | 2949 ft | 192 kts | 334° |
| 2026-05-05 10:01 | 48.61959 | 9.06599 | 2943 ft | 193 kts | 332° |
| 2026-05-05 10:01 | 48.63138 | 9.05618 | 2945 ft | 195 kts | 339° |
| 2026-05-05 10:01 | 48.64447 | 9.05577 | 2955 ft | 192 kts | 25° |
| 2026-05-05 10:01 | 48.65407 | 9.06920 | 2978 ft | 192 kts | 54° |
| 2026-05-05 10:02 | 48.66225 | 9.08556 | 2905 ft | 196 kts | 57° |
| 2026-05-05 10:02 | 48.66734 | 9.10414 | 2709 ft | 185 kts | 71° |
| 2026-05-05 10:02 | 48.67105 | 9.12210 | 2446 ft | 171 kts | 73° |
| 2026-05-05 10:02 | 48.67416 | 9.13861 | 2190 ft | 156 kts | 73° |
| 2026-05-05 10:03 | 48.67706 | 9.15409 | 2008 ft | 152 kts | 74° |
| 2026-05-05 10:03 | 48.67985 | 9.16946 | 1789 ft | 152 kts | 76° |
| 2026-05-05 10:03 | 48.68266 | 9.18477 | 1572 ft | 149 kts | 73° |
| 2026-05-05 10:03 | 48.68551 | 9.19944 | 1383 ft | 146 kts | 73° |
| 2026-05-05 10:04 | 48.68842 | 9.21406 | 1286 ft | 135 kts | 73° |
| 2026-05-05 10:04 | 48.69041 | 9.22475 | 1287 ft | 75 kts | 74° |
| 2026-05-05 10:04 | 48.69122 | 9.22901 | 1289 ft | 0 kts | 71° |
| 2026-05-05 10:04 | 48.69131 | 9.22941 | 1287 ft | 13 kts | 69° |
| 2026-05-05 10:05 | 48.69157 | 9.23086 | 1284 ft | 14 kts | 77° |
| 2026-05-05 10:05 | 48.69196 | 9.23206 | 1284 ft | 11 kts | 34° |
| 2026-05-05 10:05 | 48.69266 | 9.23199 | 1286 ft | 10 kts | 346° |
| 2026-05-05 10:05 | 48.69337 | 9.23148 | 1285 ft | 10 kts | 290° |
| 2026-05-05 10:06 | 48.69323 | 9.23039 | 1284 ft | 11 kts | 253° |
| 2026-05-05 10:06 | 48.69301 | 9.22928 | 1286 ft | 11 kts | 254° |
| 2026-05-05 10:06 | 48.69277 | 9.22791 | 1286 ft | 18 kts | 253° |
| 2026-05-05 10:06 | 48.69241 | 9.22611 | 1286 ft | 18 kts | 253° |
| 2026-05-05 10:07 | 48.69274 | 9.22450 | 1287 ft | 18 kts | 303° |
| 2026-05-05 10:07 | 48.69263 | 9.22271 | 1288 ft | 17 kts | 254° |
| 2026-05-05 10:07 | 48.69230 | 9.22103 | 1287 ft | 16 kts | 253° |